sensor_id;sensor_type;location;lat;lon;timestamp;P1;durP1;ratioP1;P2;durP2;ratioP2
75446;SDS011;64024;55.820;37.574;2023-07-30T00:02:00;5.80;;;5.20;;
75446;SDS011;64024;55.820;37.574;2023-07-30T00:04:26;6.63;;;5.50;;
75446;SDS011;64024;55.820;37.574;2023-07-30T00:06:52;6.22;;;4.97;;
75446;SDS011;64024;55.820;37.574;2023-07-30T00:09:18;5.57;;;4.38;;
75446;SDS011;64024;55.820;37.574;2023-07-30T00:11:45;5.45;;;4.85;;
75446;SDS011;64024;55.820;37.574;2023-07-30T00:14:11;6.43;;;5.75;;
75446;SDS011;64024;55.820;37.574;2023-07-30T00:16:37;6.15;;;5.22;;
75446;SDS011;64024;55.820;37.574;2023-07-30T00:19:05;7.00;;;4.65;;
75446;SDS011;64024;55.820;37.574;2023-07-30T00:21:31;5.72;;;5.18;;
75446;SDS011;64024;55.820;37.574;2023-07-30T00:23:58;6.05;;;5.38;;
75446;SDS011;64024;55.820;37.574;2023-07-30T00:26:24;5.43;;;4.90;;
75446;SDS011;64024;55.820;37.574;2023-07-30T00:28:51;5.90;;;5.40;;
75446;SDS011;64024;55.820;37.574;2023-07-30T00:31:17;6.30;;;5.70;;
75446;SDS011;64024;55.820;37.574;2023-07-30T00:33:44;6.05;;;5.38;;
75446;SDS011;64024;55.820;37.574;2023-07-30T00:36:10;6.07;;;5.47;;
75446;SDS011;64024;55.820;37.574;2023-07-30T00:38:36;5.75;;;4.82;;
75446;SDS011;64024;55.820;37.574;2023-07-30T00:41:02;6.50;;;5.63;;
75446;SDS011;64024;55.820;37.574;2023-07-30T00:43:28;5.88;;;5.15;;
75446;SDS011;64024;55.820;37.574;2023-07-30T00:45:55;5.80;;;5.20;;
75446;SDS011;64024;55.820;37.574;2023-07-30T00:50:47;5.05;;;4.55;;
75446;SDS011;64024;55.820;37.574;2023-07-30T00:53:13;5.90;;;4.53;;
75446;SDS011;64024;55.820;37.574;2023-07-30T00:55:40;6.40;;;5.50;;
75446;SDS011;64024;55.820;37.574;2023-07-30T00:58:07;5.97;;;5.30;;
75446;SDS011;64024;55.820;37.574;2023-07-30T01:00:36;5.55;;;5.05;;
75446;SDS011;64024;55.820;37.574;2023-07-30T01:03:03;6.03;;;5.43;;
75446;SDS011;64024;55.820;37.574;2023-07-30T01:05:29;5.10;;;4.70;;
75446;SDS011;64024;55.820;37.574;2023-07-30T01:07:57;6.50;;;5.32;;
75446;SDS011;64024;55.820;37.574;2023-07-30T01:10:23;5.10;;;4.70;;
75446;SDS011;64024;55.820;37.574;2023-07-30T01:12:50;5.78;;;5.28;;
75446;SDS011;64024;55.820;37.574;2023-07-30T01:15:18;5.55;;;4.97;;
75446;SDS011;64024;55.820;37.574;2023-07-30T01:17:44;6.55;;;4.65;;
75446;SDS011;64024;55.820;37.574;2023-07-30T01:20:11;5.70;;;5.13;;
75446;SDS011;64024;55.820;37.574;2023-07-30T01:22:38;6.20;;;5.60;;
75446;SDS011;64024;55.820;37.574;2023-07-30T01:25:04;6.47;;;5.78;;
75446;SDS011;64024;55.820;37.574;2023-07-30T01:27:33;6.28;;;5.47;;
75446;SDS011;64024;55.820;37.574;2023-07-30T01:30:19;6.07;;;5.45;;
75446;SDS011;64024;55.820;37.574;2023-07-30T01:32:49;5.28;;;4.78;;
75446;SDS011;64024;55.820;37.574;2023-07-30T01:35:17;6.32;;;5.72;;
75446;SDS011;64024;55.820;37.574;2023-07-30T01:37:47;6.10;;;5.15;;
75446;SDS011;64024;55.820;37.574;2023-07-30T01:40:16;6.40;;;5.72;;
75446;SDS011;64024;55.820;37.574;2023-07-30T01:42:43;5.68;;;5.13;;
75446;SDS011;64024;55.820;37.574;2023-07-30T01:45:09;6.15;;;5.55;;
75446;SDS011;64024;55.820;37.574;2023-07-30T01:47:35;5.55;;;4.88;;
75446;SDS011;64024;55.820;37.574;2023-07-30T01:50:01;5.90;;;5.30;;
75446;SDS011;64024;55.820;37.574;2023-07-30T01:52:28;5.60;;;4.70;;
75446;SDS011;64024;55.820;37.574;2023-07-30T01:54:54;5.90;;;5.30;;
75446;SDS011;64024;55.820;37.574;2023-07-30T01:57:24;6.00;;;5.40;;
75446;SDS011;64024;55.820;37.574;2023-07-30T01:59:50;5.28;;;4.78;;
75446;SDS011;64024;55.820;37.574;2023-07-30T02:02:17;5.18;;;4.68;;
75446;SDS011;64024;55.820;37.574;2023-07-30T02:04:43;6.30;;;5.40;;
75446;SDS011;64024;55.820;37.574;2023-07-30T02:07:10;5.60;;;5.10;;
75446;SDS011;64024;55.820;37.574;2023-07-30T02:09:36;5.75;;;5.05;;
75446;SDS011;64024;55.820;37.574;2023-07-30T02:12:02;5.60;;;5.00;;
75446;SDS011;64024;55.820;37.574;2023-07-30T02:14:30;5.97;;;5.28;;
75446;SDS011;64024;55.820;37.574;2023-07-30T02:16:56;5.72;;;4.82;;
75446;SDS011;64024;55.820;37.574;2023-07-30T02:19:23;6.38;;;4.90;;
75446;SDS011;64024;55.820;37.574;2023-07-30T02:21:49;5.78;;;5.03;;
75446;SDS011;64024;55.820;37.574;2023-07-30T02:24:16;5.25;;;4.75;;
75446;SDS011;64024;55.820;37.574;2023-07-30T02:26:42;5.38;;;4.85;;
75446;SDS011;64024;55.820;37.574;2023-07-30T02:29:08;6.03;;;5.43;;
75446;SDS011;64024;55.820;37.574;2023-07-30T02:31:35;5.00;;;4.22;;
75446;SDS011;64024;55.820;37.574;2023-07-30T02:34:01;5.88;;;5.15;;
75446;SDS011;64024;55.820;37.574;2023-07-30T02:36:27;5.22;;;4.57;;
75446;SDS011;64024;55.820;37.574;2023-07-30T02:38:53;4.65;;;4.15;;
75446;SDS011;64024;55.820;37.574;2023-07-30T02:41:20;4.68;;;4.00;;
75446;SDS011;64024;55.820;37.574;2023-07-30T02:43:46;5.13;;;4.63;;
75446;SDS011;64024;55.820;37.574;2023-07-30T02:46:12;4.28;;;3.88;;
75446;SDS011;64024;55.820;37.574;2023-07-30T02:48:38;4.43;;;3.88;;
75446;SDS011;64024;55.820;37.574;2023-07-30T02:51:04;4.63;;;3.92;;
75446;SDS011;64024;55.820;37.574;2023-07-30T02:53:31;4.25;;;3.85;;
75446;SDS011;64024;55.820;37.574;2023-07-30T02:55:57;4.75;;;3.90;;
75446;SDS011;64024;55.820;37.574;2023-07-30T02:58:23;4.60;;;3.70;;
75446;SDS011;64024;55.820;37.574;2023-07-30T03:00:49;4.00;;;3.60;;
75446;SDS011;64024;55.820;37.574;2023-07-30T03:03:16;3.83;;;3.42;;
75446;SDS011;64024;55.820;37.574;2023-07-30T03:05:42;4.93;;;4.32;;
75446;SDS011;64024;55.820;37.574;2023-07-30T03:08:08;4.30;;;3.85;;
75446;SDS011;64024;55.820;37.574;2023-07-30T03:10:36;4.95;;;3.85;;
75446;SDS011;64024;55.820;37.574;2023-07-30T03:13:02;4.45;;;3.65;;
75446;SDS011;64024;55.820;37.574;2023-07-30T03:15:29;4.35;;;3.63;;
75446;SDS011;64024;55.820;37.574;2023-07-30T03:17:55;3.92;;;3.30;;
75446;SDS011;64024;55.820;37.574;2023-07-30T03:20:21;3.75;;;3.45;;
75446;SDS011;64024;55.820;37.574;2023-07-30T03:22:47;3.53;;;3.22;;
75446;SDS011;64024;55.820;37.574;2023-07-30T03:25:14;4.18;;;3.25;;
75446;SDS011;64024;55.820;37.574;2023-07-30T03:27:40;3.90;;;3.45;;
75446;SDS011;64024;55.820;37.574;2023-07-30T03:30:06;4.72;;;3.85;;
75446;SDS011;64024;55.820;37.574;2023-07-30T03:32:34;4.45;;;3.70;;
75446;SDS011;64024;55.820;37.574;2023-07-30T03:35:01;4.88;;;3.85;;
75446;SDS011;64024;55.820;37.574;2023-07-30T03:37:27;4.35;;;3.55;;
75446;SDS011;64024;55.820;37.574;2023-07-30T03:39:53;4.00;;;3.58;;
75446;SDS011;64024;55.820;37.574;2023-07-30T03:42:20;3.40;;;3.08;;
75446;SDS011;64024;55.820;37.574;2023-07-30T03:44:47;3.58;;;2.95;;
75446;SDS011;64024;55.820;37.574;2023-07-30T03:47:13;4.25;;;3.85;;
75446;SDS011;64024;55.820;37.574;2023-07-30T03:49:41;4.22;;;3.17;;
75446;SDS011;64024;55.820;37.574;2023-07-30T03:52:08;4.63;;;2.92;;
75446;SDS011;64024;55.820;37.574;2023-07-30T03:54:34;3.90;;;3.22;;
75446;SDS011;64024;55.820;37.574;2023-07-30T03:57:03;3.90;;;3.50;;
75446;SDS011;64024;55.820;37.574;2023-07-30T03:59:29;3.63;;;3.22;;
75446;SDS011;64024;55.820;37.574;2023-07-30T04:01:55;3.83;;;3.13;;
75446;SDS011;64024;55.820;37.574;2023-07-30T04:04:22;3.88;;;3.50;;
75446;SDS011;64024;55.820;37.574;2023-07-30T04:06:50;3.13;;;2.83;;
75446;SDS011;64024;55.820;37.574;2023-07-30T04:09:16;4.20;;;2.47;;
75446;SDS011;64024;55.820;37.574;2023-07-30T04:11:42;4.00;;;2.75;;
75446;SDS011;64024;55.820;37.574;2023-07-30T04:14:08;3.75;;;3.10;;
75446;SDS011;64024;55.820;37.574;2023-07-30T04:16:34;4.18;;;3.00;;
75446;SDS011;64024;55.820;37.574;2023-07-30T04:19:00;4.20;;;3.25;;
75446;SDS011;64024;55.820;37.574;2023-07-30T04:21:26;3.45;;;2.90;;
75446;SDS011;64024;55.820;37.574;2023-07-30T04:23:52;3.13;;;2.40;;
75446;SDS011;64024;55.820;37.574;2023-07-30T04:26:19;3.67;;;3.00;;
75446;SDS011;64024;55.820;37.574;2023-07-30T04:28:45;5.00;;;3.00;;
75446;SDS011;64024;55.820;37.574;2023-07-30T04:31:11;3.67;;;3.15;;
75446;SDS011;64024;55.820;37.574;2023-07-30T04:33:37;3.50;;;2.60;;
75446;SDS011;64024;55.820;37.574;2023-07-30T04:36:03;2.88;;;2.58;;
75446;SDS011;64024;55.820;37.574;2023-07-30T04:38:29;3.30;;;2.80;;
75446;SDS011;64024;55.820;37.574;2023-07-30T04:40:57;2.92;;;2.50;;
75446;SDS011;64024;55.820;37.574;2023-07-30T04:43:23;4.07;;;3.20;;
75446;SDS011;64024;55.820;37.574;2023-07-30T04:45:50;2.60;;;2.33;;
75446;SDS011;64024;55.820;37.574;2023-07-30T04:48:16;3.03;;;2.63;;
75446;SDS011;64024;55.820;37.574;2023-07-30T04:50:43;3.75;;;3.20;;
75446;SDS011;64024;55.820;37.574;2023-07-30T04:53:09;3.55;;;2.83;;
75446;SDS011;64024;55.820;37.574;2023-07-30T04:55:37;4.35;;;2.85;;
75446;SDS011;64024;55.820;37.574;2023-07-30T04:58:03;4.55;;;3.10;;
75446;SDS011;64024;55.820;37.574;2023-07-30T05:00:29;3.20;;;2.90;;
75446;SDS011;64024;55.820;37.574;2023-07-30T05:02:55;3.05;;;2.60;;
75446;SDS011;64024;55.820;37.574;2023-07-30T05:05:21;2.90;;;2.58;;
75446;SDS011;64024;55.820;37.574;2023-07-30T05:07:48;4.35;;;2.78;;
75446;SDS011;64024;55.820;37.574;2023-07-30T05:10:13;3.28;;;2.42;;
75446;SDS011;64024;55.820;37.574;2023-07-30T05:12:41;3.40;;;2.40;;
75446;SDS011;64024;55.820;37.574;2023-07-30T05:15:07;3.33;;;2.28;;
75446;SDS011;64024;55.820;37.574;2023-07-30T05:17:33;3.30;;;2.47;;
75446;SDS011;64024;55.820;37.574;2023-07-30T05:19:59;2.55;;;2.10;;
75446;SDS011;64024;55.820;37.574;2023-07-30T05:22:25;2.58;;;2.20;;
75446;SDS011;64024;55.820;37.574;2023-07-30T05:24:51;3.00;;;2.30;;
75446;SDS011;64024;55.820;37.574;2023-07-30T05:27:17;2.38;;;2.17;;
75446;SDS011;64024;55.820;37.574;2023-07-30T05:29:44;2.42;;;1.80;;
75446;SDS011;64024;55.820;37.574;2023-07-30T05:32:10;2.47;;;1.95;;
75446;SDS011;64024;55.820;37.574;2023-07-30T05:34:38;3.40;;;2.00;;
75446;SDS011;64024;55.820;37.574;2023-07-30T05:37:04;3.53;;;2.22;;
75446;SDS011;64024;55.820;37.574;2023-07-30T05:39:30;3.50;;;2.30;;
75446;SDS011;64024;55.820;37.574;2023-07-30T05:41:56;2.97;;;2.25;;
75446;SDS011;64024;55.820;37.574;2023-07-30T05:44:22;2.95;;;2.33;;
75446;SDS011;64024;55.820;37.574;2023-07-30T05:46:48;3.63;;;2.92;;
75446;SDS011;64024;55.820;37.574;2023-07-30T05:49:14;4.65;;;2.58;;
75446;SDS011;64024;55.820;37.574;2023-07-30T05:51:41;2.92;;;2.63;;
75446;SDS011;64024;55.820;37.574;2023-07-30T05:54:07;3.20;;;2.40;;
75446;SDS011;64024;55.820;37.574;2023-07-30T05:56:33;3.78;;;2.67;;
75446;SDS011;64024;55.820;37.574;2023-07-30T05:58:58;2.53;;;2.33;;
75446;SDS011;64024;55.820;37.574;2023-07-30T06:01:24;2.78;;;2.45;;
75446;SDS011;64024;55.820;37.574;2023-07-30T06:03:50;4.25;;;2.88;;
75446;SDS011;64024;55.820;37.574;2023-07-30T06:06:16;3.17;;;2.85;;
75446;SDS011;64024;55.820;37.574;2023-07-30T06:08:42;2.75;;;2.35;;
75446;SDS011;64024;55.820;37.574;2023-07-30T06:11:09;3.38;;;2.95;;
75446;SDS011;64024;55.820;37.574;2023-07-30T06:13:35;2.75;;;2.38;;
75446;SDS011;64024;55.820;37.574;2023-07-30T06:16:02;3.25;;;2.53;;
75446;SDS011;64024;55.820;37.574;2023-07-30T06:18:28;3.33;;;2.20;;
75446;SDS011;64024;55.820;37.574;2023-07-30T06:20:54;4.15;;;2.55;;
75446;SDS011;64024;55.820;37.574;2023-07-30T06:23:20;3.28;;;2.60;;
75446;SDS011;64024;55.820;37.574;2023-07-30T06:25:47;4.03;;;2.60;;
75446;SDS011;64024;55.820;37.574;2023-07-30T06:28:13;3.33;;;2.25;;
75446;SDS011;64024;55.820;37.574;2023-07-30T06:30:39;4.38;;;2.53;;
75446;SDS011;64024;55.820;37.574;2023-07-30T06:33:05;3.33;;;2.60;;
75446;SDS011;64024;55.820;37.574;2023-07-30T06:35:31;2.88;;;2.60;;
75446;SDS011;64024;55.820;37.574;2023-07-30T06:37:57;3.40;;;2.65;;
75446;SDS011;64024;55.820;37.574;2023-07-30T06:40:23;4.40;;;2.17;;
75446;SDS011;64024;55.820;37.574;2023-07-30T06:42:49;4.93;;;3.00;;
75446;SDS011;64024;55.820;37.574;2023-07-30T06:45:15;3.03;;;2.38;;
75446;SDS011;64024;55.820;37.574;2023-07-30T06:47:42;2.53;;;1.65;;
75446;SDS011;64024;55.820;37.574;2023-07-30T06:50:09;4.40;;;2.40;;
75446;SDS011;64024;55.820;37.574;2023-07-30T06:52:36;2.97;;;2.63;;
75446;SDS011;64024;55.820;37.574;2023-07-30T06:55:02;2.30;;;2.03;;
75446;SDS011;64024;55.820;37.574;2023-07-30T06:57:30;2.53;;;1.88;;
75446;SDS011;64024;55.820;37.574;2023-07-30T06:59:55;4.55;;;2.30;;
75446;SDS011;64024;55.820;37.574;2023-07-30T07:02:23;3.65;;;2.20;;
75446;SDS011;64024;55.820;37.574;2023-07-30T07:04:49;3.05;;;2.15;;
75446;SDS011;64024;55.820;37.574;2023-07-30T07:07:16;2.00;;;1.75;;
75446;SDS011;64024;55.820;37.574;2023-07-30T07:09:50;3.20;;;1.92;;
75446;SDS011;64024;55.820;37.574;2023-07-30T07:12:30;2.05;;;1.63;;
75446;SDS011;64024;55.820;37.574;2023-07-30T07:15:06;2.65;;;2.17;;
75446;SDS011;64024;55.820;37.574;2023-07-30T07:17:39;3.05;;;2.00;;
75446;SDS011;64024;55.820;37.574;2023-07-30T07:20:12;3.30;;;1.70;;
75446;SDS011;64024;55.820;37.574;2023-07-30T07:22:39;2.72;;;1.55;;
75446;SDS011;64024;55.820;37.574;2023-07-30T07:25:06;2.85;;;1.70;;
75446;SDS011;64024;55.820;37.574;2023-07-30T07:27:33;3.03;;;1.60;;
75446;SDS011;64024;55.820;37.574;2023-07-30T07:30:01;2.85;;;1.80;;
75446;SDS011;64024;55.820;37.574;2023-07-30T07:32:29;2.38;;;1.70;;
75446;SDS011;64024;55.820;37.574;2023-07-30T07:34:56;2.53;;;1.73;;
75446;SDS011;64024;55.820;37.574;2023-07-30T07:37:24;2.15;;;1.40;;
75446;SDS011;64024;55.820;37.574;2023-07-30T07:39:50;2.55;;;1.98;;
75446;SDS011;64024;55.820;37.574;2023-07-30T07:42:17;1.92;;;1.50;;
75446;SDS011;64024;55.820;37.574;2023-07-30T07:44:43;2.40;;;1.85;;
75446;SDS011;64024;55.820;37.574;2023-07-30T07:47:11;2.70;;;1.90;;
75446;SDS011;64024;55.820;37.574;2023-07-30T07:49:38;2.05;;;1.80;;
75446;SDS011;64024;55.820;37.574;2023-07-30T07:52:04;2.42;;;1.83;;
75446;SDS011;64024;55.820;37.574;2023-07-30T07:54:32;2.10;;;1.70;;
75446;SDS011;64024;55.820;37.574;2023-07-30T07:56:58;2.03;;;1.50;;
75446;SDS011;64024;55.820;37.574;2023-07-30T07:59:24;2.22;;;1.98;;
75446;SDS011;64024;55.820;37.574;2023-07-30T08:01:51;2.03;;;1.77;;
75446;SDS011;64024;55.820;37.574;2023-07-30T08:04:18;2.13;;;1.75;;
75446;SDS011;64024;55.820;37.574;2023-07-30T08:06:46;2.65;;;1.85;;
75446;SDS011;64024;55.820;37.574;2023-07-30T08:09:13;3.15;;;1.88;;
75446;SDS011;64024;55.820;37.574;2023-07-30T08:11:39;1.92;;;1.60;;
75446;SDS011;64024;55.820;37.574;2023-07-30T08:14:05;2.47;;;1.60;;
75446;SDS011;64024;55.820;37.574;2023-07-30T08:16:31;2.15;;;1.50;;
75446;SDS011;64024;55.820;37.574;2023-07-30T08:18:57;2.17;;;1.65;;
75446;SDS011;64024;55.820;37.574;2023-07-30T08:21:23;3.45;;;1.80;;
75446;SDS011;64024;55.820;37.574;2023-07-30T08:23:51;2.03;;;1.30;;
75446;SDS011;64024;55.820;37.574;2023-07-30T08:26:17;1.90;;;1.60;;
75446;SDS011;64024;55.820;37.574;2023-07-30T08:28:43;2.08;;;1.42;;
75446;SDS011;64024;55.820;37.574;2023-07-30T08:31:09;3.55;;;2.00;;
75446;SDS011;64024;55.820;37.574;2023-07-30T08:33:35;2.22;;;1.77;;
75446;SDS011;64024;55.820;37.574;2023-07-30T08:36:02;2.13;;;1.90;;
75446;SDS011;64024;55.820;37.574;2023-07-30T08:38:28;2.67;;;1.88;;
75446;SDS011;64024;55.820;37.574;2023-07-30T08:40:55;2.00;;;1.73;;
75446;SDS011;64024;55.820;37.574;2023-07-30T08:45:48;2.17;;;1.85;;
75446;SDS011;64024;55.820;37.574;2023-07-30T08:48:14;4.70;;;1.73;;
75446;SDS011;64024;55.820;37.574;2023-07-30T08:50:40;2.13;;;1.73;;
75446;SDS011;64024;55.820;37.574;2023-07-30T08:53:07;3.10;;;1.85;;
75446;SDS011;64024;55.820;37.574;2023-07-30T08:55:33;3.65;;;2.00;;
75446;SDS011;64024;55.820;37.574;2023-07-30T08:58:03;2.22;;;1.58;;
75446;SDS011;64024;55.820;37.574;2023-07-30T09:00:34;2.55;;;1.58;;
75446;SDS011;64024;55.820;37.574;2023-07-30T09:03:03;2.10;;;1.85;;
75446;SDS011;64024;55.820;37.574;2023-07-30T09:05:30;5.45;;;2.25;;
75446;SDS011;64024;55.820;37.574;2023-07-30T09:07:57;2.35;;;1.83;;
75446;SDS011;64024;55.820;37.574;2023-07-30T09:10:25;2.97;;;2.03;;
75446;SDS011;64024;55.820;37.574;2023-07-30T09:12:52;2.47;;;2.08;;
75446;SDS011;64024;55.820;37.574;2023-07-30T09:15:20;4.07;;;1.98;;
75446;SDS011;64024;55.820;37.574;2023-07-30T09:17:56;2.10;;;1.83;;
75446;SDS011;64024;55.820;37.574;2023-07-30T09:20:22;2.13;;;1.70;;
75446;SDS011;64024;55.820;37.574;2023-07-30T09:22:49;2.47;;;1.95;;
75446;SDS011;64024;55.820;37.574;2023-07-30T09:25:19;3.63;;;1.70;;
75446;SDS011;64024;55.820;37.574;2023-07-30T09:27:52;2.17;;;1.95;;
75446;SDS011;64024;55.820;37.574;2023-07-30T09:30:24;2.75;;;1.70;;
75446;SDS011;64024;55.820;37.574;2023-07-30T09:32:57;3.03;;;1.90;;
75446;SDS011;64024;55.820;37.574;2023-07-30T09:35:24;4.00;;;1.90;;
75446;SDS011;64024;55.820;37.574;2023-07-30T09:38:01;1.95;;;1.70;;
75446;SDS011;64024;55.820;37.574;2023-07-30T09:40:32;4.85;;;1.52;;
75446;SDS011;64024;55.820;37.574;2023-07-30T09:43:00;3.55;;;1.88;;
75446;SDS011;64024;55.820;37.574;2023-07-30T09:45:28;2.47;;;1.88;;
75446;SDS011;64024;55.820;37.574;2023-07-30T09:47:58;12.18;;;2.53;;
75446;SDS011;64024;55.820;37.574;2023-07-30T09:52:51;1.95;;;1.60;;
75446;SDS011;64024;55.820;37.574;2023-07-30T09:55:18;2.15;;;1.20;;
75446;SDS011;64024;55.820;37.574;2023-07-30T09:57:44;1.60;;;1.38;;
75446;SDS011;64024;55.820;37.574;2023-07-30T10:00:10;2.60;;;1.48;;
75446;SDS011;64024;55.820;37.574;2023-07-30T10:02:42;2.80;;;1.60;;
75446;SDS011;64024;55.820;37.574;2023-07-30T10:05:15;3.58;;;1.60;;
75446;SDS011;64024;55.820;37.574;2023-07-30T10:07:48;1.80;;;1.48;;
75446;SDS011;64024;55.820;37.574;2023-07-30T10:10:19;3.53;;;1.27;;
75446;SDS011;64024;55.820;37.574;2023-07-30T10:12:46;1.70;;;1.10;;
75446;SDS011;64024;55.820;37.574;2023-07-30T10:15:18;2.80;;;1.77;;
75446;SDS011;64024;55.820;37.574;2023-07-30T10:17:50;2.05;;;1.33;;
75446;SDS011;64024;55.820;37.574;2023-07-30T10:20:20;2.35;;;1.40;;
75446;SDS011;64024;55.820;37.574;2023-07-30T10:22:50;2.53;;;1.20;;
75446;SDS011;64024;55.820;37.574;2023-07-30T10:25:17;1.98;;;1.38;;
75446;SDS011;64024;55.820;37.574;2023-07-30T10:27:49;1.92;;;1.23;;
75446;SDS011;64024;55.820;37.574;2023-07-30T10:30:17;2.63;;;1.10;;
75446;SDS011;64024;55.820;37.574;2023-07-30T10:33:09;1.25;;;0.90;;
75446;SDS011;64024;55.820;37.574;2023-07-30T10:35:38;1.48;;;1.02;;
75446;SDS011;64024;55.820;37.574;2023-07-30T10:38:39;2.10;;;1.23;;
75446;SDS011;64024;55.820;37.574;2023-07-30T10:41:04;2.20;;;1.40;;
75446;SDS011;64024;55.820;37.574;2023-07-30T10:43:31;1.48;;;1.15;;
75446;SDS011;64024;55.820;37.574;2023-07-30T10:46:00;2.10;;;1.25;;
75446;SDS011;64024;55.820;37.574;2023-07-30T10:48:34;1.80;;;1.40;;
75446;SDS011;64024;55.820;37.574;2023-07-30T10:51:02;2.13;;;1.02;;
75446;SDS011;64024;55.820;37.574;2023-07-30T10:53:35;1.90;;;1.00;;
75446;SDS011;64024;55.820;37.574;2023-07-30T10:56:06;1.60;;;1.23;;
75446;SDS011;64024;55.820;37.574;2023-07-30T10:58:38;2.00;;;1.20;;
75446;SDS011;64024;55.820;37.574;2023-07-30T11:01:05;1.63;;;0.88;;
75446;SDS011;64024;55.820;37.574;2023-07-30T11:03:32;1.30;;;0.93;;
75446;SDS011;64024;55.820;37.574;2023-07-30T11:05:59;1.77;;;1.05;;
75446;SDS011;64024;55.820;37.574;2023-07-30T11:10:59;1.63;;;1.38;;
75446;SDS011;64024;55.820;37.574;2023-07-30T11:13:26;1.20;;;1.00;;
75446;SDS011;64024;55.820;37.574;2023-07-30T11:15:53;2.30;;;1.20;;
75446;SDS011;64024;55.820;37.574;2023-07-30T11:18:19;2.65;;;1.15;;
75446;SDS011;64024;55.820;37.574;2023-07-30T11:20:45;1.42;;;0.82;;
75446;SDS011;64024;55.820;37.574;2023-07-30T11:23:18;1.75;;;1.00;;
75446;SDS011;64024;55.820;37.574;2023-07-30T11:25:46;1.98;;;1.20;;
75446;SDS011;64024;55.820;37.574;2023-07-30T11:28:31;2.47;;;1.20;;
75446;SDS011;64024;55.820;37.574;2023-07-30T11:31:03;1.27;;;0.82;;
75446;SDS011;64024;55.820;37.574;2023-07-30T11:33:38;2.05;;;0.80;;
75446;SDS011;64024;55.820;37.574;2023-07-30T11:36:11;1.63;;;1.05;;
75446;SDS011;64024;55.820;37.574;2023-07-30T11:38:43;2.63;;;1.30;;
75446;SDS011;64024;55.820;37.574;2023-07-30T11:41:12;1.60;;;1.25;;
75446;SDS011;64024;55.820;37.574;2023-07-30T11:43:41;1.92;;;1.30;;
75446;SDS011;64024;55.820;37.574;2023-07-30T11:46:12;1.48;;;1.13;;
75446;SDS011;64024;55.820;37.574;2023-07-30T11:48:41;1.50;;;0.93;;
75446;SDS011;64024;55.820;37.574;2023-07-30T11:51:23;1.88;;;0.80;;
75446;SDS011;64024;55.820;37.574;2023-07-30T11:53:54;1.30;;;1.00;;
75446;SDS011;64024;55.820;37.574;2023-07-30T12:01:34;1.60;;;1.10;;
75446;SDS011;64024;55.820;37.574;2023-07-30T12:04:02;1.58;;;1.10;;
75446;SDS011;64024;55.820;37.574;2023-07-30T12:06:46;1.58;;;1.00;;
75446;SDS011;64024;55.820;37.574;2023-07-30T12:09:16;1.73;;;1.15;;
75446;SDS011;64024;55.820;37.574;2023-07-30T12:11:57;1.42;;;1.02;;
75446;SDS011;64024;55.820;37.574;2023-07-30T12:14:27;2.25;;;1.13;;
75446;SDS011;64024;55.820;37.574;2023-07-30T12:16:59;1.65;;;1.20;;
75446;SDS011;64024;55.820;37.574;2023-07-30T12:21:52;1.70;;;1.20;;
75446;SDS011;64024;55.820;37.574;2023-07-30T12:24:18;1.63;;;1.23;;
75446;SDS011;64024;55.820;37.574;2023-07-30T12:26:47;1.40;;;0.80;;
75446;SDS011;64024;55.820;37.574;2023-07-30T12:29:13;2.30;;;1.10;;
75446;SDS011;64024;55.820;37.574;2023-07-30T12:31:39;1.90;;;1.10;;
75446;SDS011;64024;55.820;37.574;2023-07-30T12:34:06;2.13;;;1.25;;
75446;SDS011;64024;55.820;37.574;2023-07-30T12:36:32;1.38;;;0.93;;
75446;SDS011;64024;55.820;37.574;2023-07-30T12:38:59;1.10;;;0.95;;
75446;SDS011;64024;55.820;37.574;2023-07-30T12:41:26;1.50;;;0.95;;
75446;SDS011;64024;55.820;37.574;2023-07-30T12:46:19;1.40;;;0.80;;
75446;SDS011;64024;55.820;37.574;2023-07-30T12:48:46;1.60;;;1.02;;
75446;SDS011;64024;55.820;37.574;2023-07-30T12:51:14;1.88;;;1.20;;
75446;SDS011;64024;55.820;37.574;2023-07-30T12:53:41;1.65;;;0.93;;
75446;SDS011;64024;55.820;37.574;2023-07-30T12:56:07;2.00;;;0.93;;
75446;SDS011;64024;55.820;37.574;2023-07-30T12:58:33;1.58;;;1.00;;
75446;SDS011;64024;55.820;37.574;2023-07-30T13:01:00;1.25;;;0.82;;
75446;SDS011;64024;55.820;37.574;2023-07-30T13:03:26;1.65;;;1.02;;
75446;SDS011;64024;55.820;37.574;2023-07-30T13:05:53;1.17;;;0.88;;
75446;SDS011;64024;55.820;37.574;2023-07-30T13:08:19;2.00;;;1.10;;
75446;SDS011;64024;55.820;37.574;2023-07-30T13:10:46;1.60;;;0.95;;
75446;SDS011;64024;55.820;37.574;2023-07-30T13:13:12;1.42;;;1.05;;
75446;SDS011;64024;55.820;37.574;2023-07-30T13:15:39;1.13;;;0.80;;
75446;SDS011;64024;55.820;37.574;2023-07-30T13:18:05;1.63;;;0.88;;
75446;SDS011;64024;55.820;37.574;2023-07-30T13:20:30;1.42;;;1.05;;
75446;SDS011;64024;55.820;37.574;2023-07-30T13:22:57;1.70;;;1.20;;
75446;SDS011;64024;55.820;37.574;2023-07-30T13:25:24;2.35;;;1.05;;
75446;SDS011;64024;55.820;37.574;2023-07-30T13:27:50;2.00;;;1.20;;
75446;SDS011;64024;55.820;37.574;2023-07-30T13:30:16;1.77;;;1.17;;
75446;SDS011;64024;55.820;37.574;2023-07-30T13:32:43;2.42;;;1.15;;
75446;SDS011;64024;55.820;37.574;2023-07-30T13:35:10;2.13;;;1.23;;
75446;SDS011;64024;55.820;37.574;2023-07-30T13:37:36;2.90;;;1.67;;
75446;SDS011;64024;55.820;37.574;2023-07-30T13:40:02;2.17;;;1.77;;
75446;SDS011;64024;55.820;37.574;2023-07-30T13:42:29;2.90;;;1.75;;
75446;SDS011;64024;55.820;37.574;2023-07-30T13:44:55;2.60;;;1.80;;
75446;SDS011;64024;55.820;37.574;2023-07-30T13:47:22;1.63;;;1.40;;
75446;SDS011;64024;55.820;37.574;2023-07-30T13:49:49;2.25;;;1.52;;
75446;SDS011;64024;55.820;37.574;2023-07-30T13:52:15;3.83;;;1.92;;
75446;SDS011;64024;55.820;37.574;2023-07-30T13:57:10;5.65;;;2.38;;
75446;SDS011;64024;55.820;37.574;2023-07-30T13:59:37;2.65;;;2.42;;
75446;SDS011;64024;55.820;37.574;2023-07-30T14:02:05;1.98;;;1.73;;
75446;SDS011;64024;55.820;37.574;2023-07-30T14:04:32;2.00;;;1.63;;
75446;SDS011;64024;55.820;37.574;2023-07-30T14:06:58;2.50;;;1.63;;
75446;SDS011;64024;55.820;37.574;2023-07-30T14:11:52;2.42;;;1.40;;
75446;SDS011;64024;55.820;37.574;2023-07-30T14:14:18;2.22;;;1.60;;
75446;SDS011;64024;55.820;37.574;2023-07-30T14:16:47;2.47;;;1.40;;
75446;SDS011;64024;55.820;37.574;2023-07-30T14:19:14;2.55;;;1.70;;
75446;SDS011;64024;55.820;37.574;2023-07-30T14:21:41;2.65;;;1.77;;
75446;SDS011;64024;55.820;37.574;2023-07-30T14:24:07;2.47;;;1.40;;
75446;SDS011;64024;55.820;37.574;2023-07-30T14:26:34;2.53;;;1.55;;
75446;SDS011;64024;55.820;37.574;2023-07-30T14:29:00;2.70;;;1.65;;
75446;SDS011;64024;55.820;37.574;2023-07-30T14:31:26;2.38;;;1.63;;
75446;SDS011;64024;55.820;37.574;2023-07-30T14:33:53;2.20;;;1.50;;
75446;SDS011;64024;55.820;37.574;2023-07-30T14:36:18;2.47;;;1.60;;
75446;SDS011;64024;55.820;37.574;2023-07-30T14:38:44;3.03;;;1.60;;
75446;SDS011;64024;55.820;37.574;2023-07-30T14:41:10;1.90;;;1.30;;
75446;SDS011;64024;55.820;37.574;2023-07-30T14:43:37;2.58;;;1.40;;
75446;SDS011;64024;55.820;37.574;2023-07-30T14:46:03;3.03;;;1.77;;
75446;SDS011;64024;55.820;37.574;2023-07-30T14:48:30;2.00;;;1.35;;
75446;SDS011;64024;55.820;37.574;2023-07-30T14:50:56;2.25;;;1.20;;
75446;SDS011;64024;55.820;37.574;2023-07-30T14:53:23;2.70;;;1.48;;
75446;SDS011;64024;55.820;37.574;2023-07-30T14:55:49;3.28;;;1.38;;
75446;SDS011;64024;55.820;37.574;2023-07-30T14:58:16;2.13;;;1.25;;
75446;SDS011;64024;55.820;37.574;2023-07-30T15:00:42;2.10;;;1.60;;